Time;durP1;ratioP1;P1;durP2;ratioP2;P2;SDS_P1;SDS_P2;PMS_P1;PMS_P2;Temp;Humidity;BMP_temperature;BMP_pressure;BME280_temperature;BME280_humidity;BME280_pressure;Samples;Min_cycle;Max_cycle;Signal;HPM_P1;HPM_P2
2023/11/01 00:00:08;;;;;;;16.17;5.00;;;13.90;99.90;;;14.12;100.00;100158.19;4823558;29;20121;-64
2023/11/01 00:02:40;;;;;;;15.30;5.38;;;13.90;99.90;;;14.09;100.00;100154.75;4824003;29;20058;-64
2023/11/01 00:05:09;;;;;;;11.30;5.47;;;13.80;99.90;;;14.04;100.00;100144.25;4823539;29;20055;-63
2023/11/01 00:07:37;;;;;;;13.30;6.53;;;13.80;99.90;;;14.07;100.00;100148.59;4823485;29;20534;-64
2023/11/01 00:10:07;;;;;;;15.48;6.28;;;13.80;99.90;;;14.06;100.00;100149.50;4823490;29;20162;-64
2023/11/01 00:12:36;;;;;;;14.40;5.80;;;13.80;99.90;;;14.01;100.00;100149.66;4809117;29;20111;-64
2023/11/01 00:15:05;;;;;;;12.13;6.10;;;13.70;99.90;;;13.98;100.00;100144.44;4823368;29;20444;-64
2023/11/01 00:17:34;;;;;;;13.68;6.13;;;13.70;99.90;;;13.88;100.00;100113.69;4823374;29;20099;-64
2023/11/01 00:20:04;;;;;;;15.18;6.60;;;13.80;99.90;;;14.02;100.00;100130.13;4823460;29;20082;-64
2023/11/01 00:22:33;;;;;;;;;;;13.80;99.90;;;14.02;100.00;100123.94;4823771;29;20409;-65
2023/11/01 00:25:01;;;;;;;14.00;5.50;;;13.70;99.90;;;14.05;100.00;100135.34;4814444;29;19931;-64
2023/11/01 00:27:31;;;;;;;16.90;6.07;;;13.80;99.90;;;14.06;100.00;100121.13;4823534;29;20063;-64
2023/11/01 00:30:01;;;;;;;12.13;5.88;;;13.80;99.90;;;14.12;100.00;100133.38;4823524;29;20066;-65
2023/11/01 00:32:30;;;;;;;17.77;6.67;;;13.80;99.90;;;13.52;100.00;100032.41;4823707;29;20140;-64
2023/11/01 00:34:59;;;;;;;12.02;6.03;;;13.90;99.90;;;14.28;100.00;100138.22;4823190;29;20378;-64
2023/11/01 00:37:29;;;;;;;16.30;6.60;;;13.90;99.90;;;14.22;100.00;100137.50;4823188;29;20447;-64
2023/11/01 00:39:57;;;;;;;11.70;7.30;;;14.00;99.90;;;13.61;100.00;100032.13;4817446;29;20093;-64
2023/11/01 00:42:26;;;;;;;20.05;8.02;;;13.90;99.90;;;14.21;100.00;100133.06;4824379;29;20055;-64
2023/11/01 00:44:54;;;;;;;19.50;9.57;;;14.00;99.90;;;14.21;100.00;100125.97;4826487;29;20119;-64
2023/11/01 00:47:23;;;;;;;19.55;8.93;;;14.00;99.90;;;14.18;100.00;100125.22;4826771;29;20049;-64
2023/11/01 00:49:51;;;;;;;17.88;8.80;;;14.00;99.90;;;14.28;100.00;100138.22;4826045;29;20061;-64
2023/11/01 00:52:20;;;;;;;16.88;8.60;;;14.00;99.90;;;14.19;100.00;100113.63;4813755;29;20153;-64
2023/11/01 00:54:52;;;;;;;19.98;8.18;;;14.00;99.90;;;14.35;100.00;100130.91;4796124;29;20051;-64
2023/11/01 00:57:21;;;;;;;19.25;8.82;;;14.10;99.90;;;14.23;100.00;100101.97;4825945;29;20396;-64
2023/11/01 00:59:49;;;;;;;19.33;7.75;;;14.10;99.90;;;14.44;100.00;100126.16;4819764;29;20476;-64
2023/11/01 01:02:17;;;;;;;17.17;7.70;;;14.20;99.90;;;14.35;100.00;100128.25;4810858;29;20160;-64
2023/11/01 01:04:46;;;;;;;15.38;7.85;;;14.10;99.90;;;14.39;100.00;100124.56;4826237;29;20054;-65
2023/11/01 01:07:15;;;;;;;13.25;7.50;;;14.10;99.90;;;14.43;100.00;100115.56;4825942;29;20404;-64
2023/11/01 01:09:42;;;;;;;17.38;7.85;;;14.10;99.90;;;14.33;100.00;100103.47;4826126;29;20054;-64
2023/11/01 01:12:12;;;;;;;17.20;7.85;;;14.10;99.90;;;14.41;100.00;100109.41;4825818;29;20058;-65
2023/11/01 01:14:40;;;;;;;14.30;7.67;;;14.10;99.90;;;14.37;100.00;100107.78;4826351;29;20053;-64
2023/11/01 01:17:09;;;;;;;16.85;7.72;;;14.10;99.90;;;13.84;100.00;100019.00;4825810;29;20058;-64
2023/11/01 01:19:37;;;;;;;12.43;7.30;;;14.10;99.90;;;14.37;100.00;100098.00;4825919;29;20054;-65
2023/11/01 01:22:06;;;;;;;13.20;7.40;;;14.10;99.90;;;14.35;100.00;100097.19;4809659;29;20107;-64
2023/11/01 01:24:35;;;;;;;16.13;7.15;;;14.10;99.90;;;14.34;100.00;100091.94;4825582;29;20057;-64
2023/11/01 01:27:04;;;;;;;15.82;6.95;;;14.10;99.90;;;14.11;100.00;100075.78;4825413;29;20149;-64
2023/11/01 01:29:33;;;;;;;15.25;7.10;;;14.00;99.90;;;14.30;100.00;100087.63;4809490;29;20061;-65
2023/11/01 01:32:02;;;;;;;15.57;7.30;;;14.00;99.90;;;14.19;100.00;100058.66;4825801;29;20042;-65
2023/11/01 01:34:31;;;;;;;16.30;6.97;;;14.00;99.90;;;14.28;100.00;100068.19;4826056;29;20054;-65
2023/11/01 01:36:59;;;;;;;11.48;6.15;;;14.00;99.90;;;14.19;100.00;100063.97;4811801;29;20058;-64
2023/11/01 01:39:28;;;;;;;14.35;6.80;;;14.00;99.90;;;14.29;100.00;100067.25;4808997;29;20058;-64
2023/11/01 01:41:56;;;;;;;15.98;7.28;;;14.00;99.90;;;14.27;100.00;100061.06;4825656;29;20088;-64
2023/11/01 01:44:25;;;;;;;11.43;6.35;;;14.00;99.90;;;14.27;100.00;100067.28;4825586;29;20053;-65
2023/11/01 01:46:56;;;;;;;12.35;6.15;;;14.00;99.90;;;14.22;100.00;100052.38;4825546;29;20390;-65
2023/11/01 01:49:25;;;;;;;15.40;6.95;;;14.00;99.90;;;14.22;100.00;100047.06;4825874;29;20074;-64
2023/11/01 01:52:05;;;;;;;11.38;6.55;;;13.90;99.90;;;14.25;100.00;100038.97;4825507;29;20050;-65
2023/11/01 01:54:35;;;;;;;15.37;7.07;;;14.00;99.90;;;14.24;100.00;100034.59;4825136;29;20556;-65
2023/11/01 01:57:03;;;;;;;13.25;7.57;;;14.00;99.90;;;14.17;100.00;100025.91;4816340;29;20078;-65
2023/11/01 01:59:32;;;;;;;19.08;8.68;;;13.90;99.90;;;14.03;100.00;100035.28;4808788;29;20498;-64
2023/11/01 02:02:04;;;;;;;16.17;8.35;;;13.80;99.90;;;14.00;100.00;100028.25;4808896;29;20424;-65
2023/11/01 02:04:32;;;;;;;15.43;8.68;;;13.80;99.90;;;14.03;100.00;100020.16;4821209;29;20058;-64
2023/11/01 02:07:01;;;;;;;16.90;7.80;;;13.70;99.90;;;14.07;100.00;100015.66;4804416;29;20054;-64
2023/11/01 02:09:30;;;;;;;15.70;8.07;;;13.80;99.90;;;14.06;100.00;100025.41;4824942;29;20065;-65
2023/11/01 02:11:59;;;;;;;13.80;8.20;;;13.80;99.90;;;13.82;100.00;100012.88;4825174;29;20446;-64
2023/11/01 02:14:27;;;;;;;17.42;7.93;;;13.60;99.90;;;13.66;100.00;99984.19;4808936;29;20165;-65
2023/11/01 02:16:56;;;;;;;16.17;7.65;;;13.60;99.90;;;13.78;100.00;100013.03;4822683;29;20066;-65
2023/11/01 02:19:26;;;;;;;15.02;7.45;;;13.60;99.90;;;13.68;100.00;99996.50;4824833;29;20799;-65
2023/11/01 02:21:54;;;;;;;12.47;6.00;;;13.50;99.90;;;13.67;100.00;100015.13;4825097;29;20050;-65
2023/11/01 02:24:24;;;;;;;12.07;6.20;;;13.50;99.90;;;13.73;100.00;100012.28;4808519;29;20291;-65
2023/11/01 02:26:52;;;;;;;15.60;5.75;;;13.50;99.90;;;13.58;100.00;99995.94;4824962;29;20600;-64
2023/11/01 02:29:22;;;;;;;9.02;5.75;;;13.40;99.90;;;13.54;100.00;99993.41;4824680;29;20058;-64
2023/11/01 02:31:51;;;;;;;12.00;6.10;;;13.40;99.90;;;13.57;100.00;99986.19;4824894;29;20058;-65
2023/11/01 02:34:19;;;;;;;12.50;5.75;;;13.40;99.90;;;13.54;100.00;99962.38;4824591;29;20050;-65
2023/11/01 02:36:48;;;;;;;10.85;5.88;;;13.40;99.90;;;13.45;100.00;99948.53;4808315;29;20082;-65
2023/11/01 02:39:17;;;;;;;10.35;5.50;;;13.40;99.90;;;13.78;100.00;99978.47;4824735;29;20115;-64
2023/11/01 02:41:48;;;;;;;12.10;5.80;;;13.50;99.90;;;13.81;100.00;99975.72;4824836;29;20050;-64
2023/11/01 02:44:16;;;;;;;9.77;5.43;;;13.60;99.90;;;13.84;100.00;99973.81;4824781;29;20132;-65
2023/11/01 02:46:45;;;;;;;12.45;6.18;;;13.60;99.90;;;13.91;100.00;99993.13;4808197;29;20058;-64
2023/11/01 02:49:13;;;;;;;10.73;6.00;;;13.70;99.90;;;13.88;100.00;99974.63;4824629;29;20138;-65
2023/11/01 02:51:42;;;;;;;12.93;6.00;;;13.60;99.90;;;13.90;100.00;99962.16;4824598;29;20130;-65
2023/11/01 02:54:10;;;;;;;14.65;6.43;;;13.60;99.90;;;13.92;100.00;99968.25;4824872;29;20057;-65
2023/11/01 02:56:38;;;;;;;12.43;6.20;;;13.70;99.90;;;13.83;100.00;99958.81;4824318;29;20109;-65
2023/11/01 02:59:08;;;;;;;10.82;6.50;;;13.70;99.90;;;13.73;100.00;99956.47;4824516;29;20088;-64
2023/11/01 03:01:37;;;;;;;14.37;7.10;;;13.60;99.90;;;13.68;100.00;99955.78;4824534;29;20046;-64
2023/11/01 03:04:05;;;;;;;9.10;6.85;;;13.40;99.90;;;13.05;100.00;99842.66;4815739;29;20137;-64
2023/11/01 03:06:34;;;;;;;13.45;7.95;;;13.50;99.90;;;13.83;100.00;99961.47;4823923;29;20062;-65
2023/11/01 03:09:03;;;;;;;15.02;9.05;;;13.60;99.90;;;13.74;100.00;99944.94;4824417;29;20069;-64
2023/11/01 03:11:32;;;;;;;14.60;10.23;;;13.50;99.90;;;13.74;100.00;99955.56;4817365;29;20062;-64
2023/11/01 03:14:00;;;;;;;14.57;11.25;;;13.50;99.90;;;13.72;100.00;99950.31;4824370;29;20054;-65
2023/11/01 03:16:30;;;;;;;19.98;12.32;;;13.50;99.90;;;13.68;100.00;99945.13;4809143;29;20093;-65
2023/11/01 03:18:59;;;;;;;19.92;13.20;;;13.50;99.90;;;13.65;100.00;99939.91;4824440;29;20060;-64
2023/11/01 03:21:27;;;;;;;21.88;13.45;;;13.50;99.90;;;13.12;100.00;99867.22;4807738;29;20138;-64
2023/11/01 03:23:56;;;;;;;20.45;13.82;;;13.40;99.90;;;13.43;100.00;99931.75;4823932;29;20454;-64
2023/11/01 03:26:24;;;;;;;18.23;13.70;;;13.40;99.90;;;13.67;100.00;99935.41;4807297;29;20065;-64
2023/11/01 03:28:52;;;;;;;21.88;14.23;;;13.40;99.90;;;13.50;100.00;99904.97;4823945;29;20054;-64
2023/11/01 03:31:21;;;;;;;18.17;13.40;;;13.50;99.90;;;13.41;100.00;99915.84;4812280;29;20058;-65
2023/11/01 03:33:51;;;;;;;23.63;12.77;;;13.30;99.90;;;13.07;100.00;99819.56;4823814;29;20057;-65
2023/11/01 03:36:19;;;;;;;18.37;13.53;;;13.40;99.90;;;13.68;100.00;99921.22;4807609;29;20061;-64
2023/11/01 03:38:48;;;;;;;14.60;12.13;;;13.50;99.90;;;13.58;100.00;99924.19;4807605;29;20054;-64
2023/11/01 03:41:16;;;;;;;17.58;12.70;;;13.40;99.90;;;13.55;100.00;99910.97;4823665;29;20519;-65
2023/11/01 03:43:45;;;;;;;18.65;12.63;;;13.30;99.90;;;13.67;100.00;99911.50;4807453;29;20435;-64
2023/11/01 03:46:13;;;;;;;14.82;12.52;;;13.50;99.90;;;13.60;100.00;99905.53;4823724;29;20103;-65
2023/11/01 03:48:41;;;;;;;16.00;12.63;;;13.40;99.90;;;13.65;100.00;99910.66;4823864;29;20063;-65
2023/11/01 03:51:13;;;;;;;12.88;11.55;;;13.50;99.90;;;13.73;100.00;99900.66;4810442;29;20069;-65
2023/11/01 03:53:41;;;;;;;11.95;10.75;;;13.50;99.90;;;13.63;100.00;99904.56;4807477;29;20095;-65
2023/11/01 03:56:12;;;;;;;13.30;10.75;;;13.50;99.90;;;13.57;100.00;99895.84;4823619;29;20043;-65
2023/11/01 03:58:40;;;;;;;11.50;9.60;;;13.40;99.90;;;13.37;100.00;99873.50;4823835;29;20153;-64
2023/11/01 04:01:08;;;;;;;14.00;10.40;;;13.30;99.90;;;13.41;100.00;99893.75;4823703;29;20051;-64
2023/11/01 04:03:37;;;;;;;9.90;8.98;;;13.20;99.90;;;13.58;100.00;99900.28;4823525;29;20106;-65
2023/11/01 04:06:09;;;;;;;9.43;8.40;;;13.30;99.90;;;13.63;100.00;99901.91;4807250;29;20054;-64
2023/11/01 04:08:40;;;;;;;10.30;9.13;;;13.40;99.90;;;13.73;100.00;99890.91;4823595;29;20047;-65
2023/11/01 04:11:09;;;;;;;10.10;8.55;;;13.50;99.90;;;13.77;100.00;99894.34;4823513;29;20042;-65
2023/11/01 04:13:37;;;;;;;11.98;10.10;;;13.50;99.90;;;13.74;100.00;99891.78;4823632;29;20046;-64
2023/11/01 04:16:07;;;;;;;13.18;10.65;;;13.60;99.90;;;13.83;100.00;99888.81;4809533;29;20206;-64
2023/11/01 04:18:34;;;;;;;11.73;10.52;;;13.60;99.90;;;13.75;100.00;99888.19;4826543;29;20056;-64
2023/11/01 04:21:03;;;;;;;13.60;11.93;;;13.60;99.90;;;13.89;100.00;99888.63;4826855;29;20141;-65
2023/11/01 04:23:34;;;;;;;14.32;12.02;;;13.70;99.90;;;13.93;100.00;99884.94;4826607;29;20054;-64
2023/11/01 04:26:04;;;;;;;14.32;12.57;;;13.70;99.90;;;14.05;100.00;99879.22;4826451;29;20081;-65
2023/11/01 04:28:33;;;;;;;16.60;12.52;;;13.80;99.90;;;14.05;100.00;99880.06;4826615;29;20061;-64
2023/11/01 04:31:02;;;;;;;14.57;13.18;;;13.80;99.90;;;14.06;100.00;99884.47;4826532;29;20050;-65
2023/11/01 04:33:31;;;;;;;18.88;13.93;;;13.80;99.90;;;14.09;100.00;99881.69;4826464;29;20537;-64
2023/11/01 04:36:00;;;;;;;15.05;12.93;;;13.90;99.90;;;14.14;100.00;99878.88;4826712;29;20053;-64
2023/11/01 04:38:29;;;;;;;16.65;12.10;;;13.90;99.90;;;14.11;100.00;99871.88;4826391;29;20068;-64
2023/11/01 04:40:57;;;;;;;14.82;13.23;;;13.90;99.90;;;14.10;100.00;99869.28;4826211;29;20053;-64
2023/11/01 04:43:27;;;;;;;14.95;13.45;;;13.90;99.90;;;13.99;100.00;99855.50;4810247;29;20119;-64
2023/11/01 04:45:56;;;;;;;17.27;13.90;;;14.00;99.90;;;14.08;100.00;99850.72;4826840;29;20069;-64
2023/11/01 04:48:24;;;;;;;15.93;13.90;;;13.90;99.90;;;14.25;100.00;99866.06;4826150;29;20046;-64
2023/11/01 04:50:54;;;;;;;17.00;14.50;;;13.90;99.90;;;14.20;100.00;99854.75;4826723;29;20113;-64
2023/11/01 04:53:23;;;;;;;18.60;15.88;;;14.00;99.90;;;14.31;100.00;99863.22;4826552;29;20136;-64
2023/11/01 04:55:51;;;;;;;16.40;14.13;;;14.00;99.90;;;14.31;100.00;99853.47;4826344;29;20054;-64
2023/11/01 04:58:20;;;;;;;14.80;13.02;;;14.10;99.90;;;14.24;100.00;99851.06;4826090;29;20103;-64
2023/11/01 05:00:50;;;;;;;18.10;11.27;;;14.10;99.90;;;14.39;100.00;99855.84;4809950;29;20157;-65
2023/11/01 05:03:18;;;;;;;10.30;8.75;;;14.10;99.90;;;14.44;100.00;99845.91;4815104;29;20161;-63
2023/11/01 05:05:47;;;;;;;9.88;8.25;;;14.20;99.90;;;14.27;100.00;99827.00;4825922;29;20102;-64
2023/11/01 05:08:15;;;;;;;15.90;11.07;;;14.10;99.90;;;14.55;100.00;99849.06;4825892;29;20042;-64
2023/11/01 05:10:44;;;;;;;21.00;15.68;;;14.20;99.90;;;14.55;100.00;99848.19;4826162;29;20054;-63
2023/11/01 05:13:13;;;;;;;26.02;16.90;;;14.20;99.90;;;14.59;100.00;99850.69;4826151;29;20187;-63
2023/11/01 05:15:41;;;;;;;30.85;18.92;;;14.30;99.90;;;14.55;100.00;99834.88;4825814;29;20057;-63
2023/11/01 05:18:11;;;;;;;27.05;19.33;;;14.30;99.90;;;14.59;100.00;99842.69;4825834;29;20054;-64
2023/11/01 05:20:41;;;;;;;24.98;14.85;;;14.30;99.90;;;14.59;100.00;99836.50;4825648;29;20057;-64
2023/11/01 05:23:09;;;;;;;22.67;12.10;;;14.30;99.90;;;14.58;100.00;99837.41;4811415;29;20078;-63
2023/11/01 05:25:37;;;;;;;17.45;8.65;;;14.30;99.90;;;13.92;100.00;99735.19;4809422;29;20062;-63
2023/11/01 05:28:06;;;;;;;19.73;9.48;;;14.20;99.90;;;14.58;100.00;99837.41;4825287;29;20055;-63
2023/11/01 05:30:34;;;;;;;17.83;8.63;;;14.20;99.90;;;13.86;100.00;99722.13;4809402;29;20066;-64
2023/11/01 05:33:03;;;;;;;19.75;7.18;;;14.30;99.90;;;14.53;100.00;99834.94;4825556;29;20042;-63
2023/11/01 05:35:36;;;;;;;22.23;8.38;;;14.20;99.90;;;14.46;100.00;99828.09;4825500;29;20398;-64
2023/11/01 05:38:06;;;;;;;21.55;7.82;;;14.20;99.90;;;14.48;100.00;99836.88;4825754;29;20062;-63
2023/11/01 05:40:35;;;;;;;22.77;7.95;;;14.20;99.90;;;14.56;100.00;99821.50;4825471;29;20046;-63
2023/11/01 05:43:04;;;;;;;22.48;8.05;;;14.30;99.90;;;14.55;100.00;99822.44;4825317;29;20125;-63
2023/11/01 05:45:33;;;;;;;18.77;7.25;;;14.20;99.90;;;14.53;100.00;99826.97;4825328;29;20057;-64
2023/11/01 05:48:07;;;;;;;25.60;7.72;;;14.30;99.90;;;14.48;100.00;99828.91;4825286;29;20078;-63
2023/11/01 05:50:40;;;;;;;18.77;6.68;;;14.20;99.90;;;14.55;100.00;99829.56;4825619;29;20057;-63
2023/11/01 05:53:10;;;;;;;22.92;7.07;;;14.20;99.90;;;14.51;100.00;99828.81;4809194;29;20058;-63
2023/11/01 05:55:39;;;;;;;22.67;6.90;;;14.20;99.90;;;14.53;100.00;99821.63;4825644;29;20042;-63
2023/11/01 05:58:28;;;;;;;24.63;7.55;;;14.20;99.90;;;14.46;100.00;99806.78;4825517;29;20038;-63
2023/11/01 06:00:57;;;;;;;16.92;6.47;;;14.20;99.90;;;14.54;100.00;99815.38;4825014;29;20054;-64
2023/11/01 06:03:25;;;;;;;21.77;6.88;;;14.20;99.90;;;14.55;100.00;99817.13;4810830;29;20439;-64
2023/11/01 06:05:57;;;;;;;15.95;6.20;;;14.20;99.90;;;14.60;100.00;99820.47;4808829;29;20062;-63
2023/11/01 06:08:27;;;;;;;19.75;7.53;;;14.30;99.90;;;14.55;100.00;99817.13;4825313;29;20060;-63
2023/11/01 06:10:56;;;;;;;21.48;6.68;;;14.30;99.90;;;14.60;100.00;99819.59;4808780;29;20540;-64
2023/11/01 06:13:24;;;;;;;21.92;8.07;;;14.30;99.90;;;14.62;100.00;99820.41;4824893;29;20054;-63
2023/11/01 06:15:58;;;;;;;22.60;6.63;;;14.30;99.90;;;14.62;100.00;99810.63;4824902;29;20054;-63
2023/11/01 06:18:26;;;;;;;22.80;6.40;;;14.30;99.90;;;14.58;100.00;99830.28;4825437;29;20058;-63
2023/11/01 06:20:56;;;;;;;19.48;6.18;;;14.30;99.90;;;14.59;100.00;99818.75;4808601;29;20130;-63
2023/11/01 06:23:25;;;;;;;13.50;6.28;;;14.30;99.90;;;14.56;100.00;99812.66;4824746;29;20049;-63
2023/11/01 06:25:54;;;;;;;18.85;6.57;;;14.20;99.90;;;14.58;100.00;99800.16;4824347;29;20507;-64
2023/11/01 06:28:22;;;;;;;18.00;5.65;;;14.30;99.90;;;14.56;100.00;99813.53;4810824;29;20075;-64
2023/11/01 06:30:51;;;;;;;18.88;5.97;;;14.20;99.90;;;14.51;100.00;99814.63;4824948;29;20115;-63
2023/11/01 06:33:19;;;;;;;18.13;5.65;;;14.20;99.90;;;14.50;100.00;99813.75;4824858;29;20066;-63
2023/11/01 06:35:48;;;;;;;22.92;6.18;;;14.20;99.90;;;14.49;100.00;99806.69;4824570;29;20050;-64
2023/11/01 06:38:18;;;;;;;18.33;5.70;;;14.20;99.90;;;14.51;100.00;99815.50;4824478;29;20497;-64
2023/11/01 06:40:46;;;;;;;18.20;5.47;;;14.20;99.90;;;14.48;100.00;99808.50;4807553;29;20058;-64
2023/11/01 06:43:15;;;;;;;19.42;5.88;;;14.20;99.90;;;14.49;100.00;99796.06;4808141;29;20058;-64
2023/11/01 06:45:43;;;;;;;19.40;5.43;;;14.20;99.90;;;14.47;100.00;99797.91;4824465;29;20086;-64
2023/11/01 06:48:11;;;;;;;19.23;6.00;;;14.20;99.90;;;14.45;100.00;99803.28;4824360;29;20061;-64
2023/11/01 06:50:40;;;;;;;19.90;5.75;;;14.20;99.90;;;14.44;100.00;99784.69;4824285;29;20385;-65
2023/11/01 06:53:09;;;;;;;19.30;5.95;;;14.20;99.90;;;14.43;100.00;99793.63;4808798;29;20141;-64
2023/11/01 06:55:39;;;;;;;20.20;5.63;;;14.20;99.90;;;14.46;100.00;99802.34;4824231;29;20053;-64
2023/11/01 06:58:07;;;;;;;15.73;5.32;;;14.20;99.90;;;14.50;100.00;99792.47;4824498;29;20058;-64
2023/11/01 07:00:37;;;;;;;20.58;6.18;;;14.20;99.90;;;14.55;100.00;99800.28;4824103;29;20046;-65
2023/11/01 07:03:05;;;;;;;19.35;5.43;;;14.20;99.90;;;14.55;100.00;99795.84;4824096;29;20061;-64
2023/11/01 07:05:38;;;;;;;17.27;5.82;;;14.30;99.90;;;14.57;100.00;99803.75;4824481;29;20065;-64
2023/11/01 07:08:07;;;;;;;17.48;5.47;;;14.30;99.90;;;14.53;100.00;99787.03;4824070;29;20054;-65
2023/11/01 07:10:35;;;;;;;20.48;5.65;;;14.30;99.90;;;14.55;100.00;99795.84;4821756;29;20544;-64
2023/11/01 07:13:06;;;;;;;20.63;5.10;;;14.30;99.90;;;14.59;100.00;99808.09;4824366;29;20447;-64
2023/11/01 07:15:34;;;;;;;;;;;14.30;99.90;;;14.63;100.00;99817.72;4824645;29;20054;-64
2023/11/01 07:18:03;;;;;;;15.30;5.75;;;14.30;99.90;;;14.67;100.00;99816.66;4823979;29;19925;-64
2023/11/01 07:20:31;;;;;;;12.18;5.00;;;14.40;99.90;;;14.63;100.00;99801.75;4823807;29;20050;-65
2023/11/01 07:23:00;;;;;;;26.25;6.22;;;14.30;99.90;;;14.69;100.00;99796.16;4823684;29;20068;-65
2023/11/01 07:25:28;;;;;;;20.23;5.72;;;14.40;99.90;;;14.67;100.00;99808.69;4823733;29;20185;-64
2023/11/01 07:27:57;;;;;;;18.92;5.47;;;14.40;99.90;;;14.68;100.00;99810.41;4823888;29;20051;-65
2023/11/01 07:30:26;;;;;;;21.50;6.13;;;14.40;99.90;;;14.71;100.00;99828.06;4824089;29;20141;-64
2023/11/01 07:32:55;;;;;;;19.20;6.90;;;14.40;99.90;;;14.78;100.00;99806.47;4823859;29;20103;-64
2023/11/01 07:35:23;;;;;;;17.80;5.55;;;14.50;99.90;;;14.73;100.00;99805.75;4823769;29;20053;-64
2023/11/01 07:37:52;;;;;;;21.17;5.75;;;14.50;99.90;;;14.59;100.00;99805.44;4824250;29;20136;-64
2023/11/01 07:40:21;;;;;;;18.60;5.60;;;14.40;99.90;;;14.60;100.00;99804.50;4807538;29;20115;-63
2023/11/01 07:42:49;;;;;;;18.02;5.60;;;14.40;99.90;;;14.67;100.00;99789.19;4823558;29;20066;-63
2023/11/01 07:45:17;;;;;;;16.33;5.90;;;14.40;99.90;;;14.63;100.00;99792.88;4823828;29;20081;-63
2023/11/01 07:47:47;;;;;;;17.23;5.68;;;14.40;99.90;;;14.54;100.00;99782.59;4823590;29;20508;-63
2023/11/01 07:50:18;;;;;;;25.00;6.55;;;14.40;99.90;;;14.65;100.00;99773.28;4823696;29;20058;-64
2023/11/01 07:52:47;;;;;;;20.95;6.50;;;14.40;99.90;;;14.37;100.00;99753.94;4813090;29;20074;-65
2023/11/01 07:55:15;;;;;;;21.30;6.20;;;14.40;99.90;;;14.58;100.00;99781.53;4826938;29;20577;-64
2023/11/01 07:57:43;;;;;;;20.67;6.45;;;14.40;99.90;;;14.67;100.00;99786.50;4816316;29;20054;-65
2023/11/01 08:00:14;;;;;;;22.35;5.88;;;14.40;99.90;;;14.58;100.00;99766.44;4827293;29;20099;-65
2023/11/01 08:02:43;;;;;;;22.90;6.43;;;14.40;99.90;;;14.58;100.00;99779.72;4810915;29;20050;-64
2023/11/01 08:05:13;;;;;;;18.55;5.50;;;14.40;99.90;;;14.54;100.00;99790.56;4827086;29;20050;-65
2023/11/01 08:07:42;;;;;;;22.10;6.20;;;14.30;99.90;;;14.51;100.00;99767.59;4826796;29;20054;-64
2023/11/01 08:10:10;;;;;;;21.20;5.70;;;14.30;99.90;;;14.51;100.00;99772.91;4827043;29;20042;-65
2023/11/01 08:12:39;;;;;;;18.70;6.10;;;14.30;99.90;;;14.49;100.00;99780.09;4826848;29;20051;-63
2023/11/01 08:15:09;;;;;;;24.75;6.10;;;14.30;99.90;;;14.49;100.00;99774.78;4826814;29;20107;-64
2023/11/01 08:17:38;;;;;;;18.92;6.07;;;14.30;99.90;;;14.52;100.00;99771.97;4812646;29;20489;-65
2023/11/01 08:20:08;;;;;;;14.85;5.63;;;14.30;99.90;;;14.53;100.00;99771.06;4826902;29;20054;-64
2023/11/01 08:22:37;;;;;;;17.90;5.47;;;14.30;99.90;;;14.60;100.00;99769.91;4826487;29;20061;-64
2023/11/01 08:25:08;;;;;;;17.73;5.80;;;14.30;99.90;;;14.07;100.00;99675.28;4810379;29;20054;-64
2023/11/01 08:27:36;;;;;;;;;;;14.40;99.90;;;14.63;100.00;99767.13;4827321;29;20303;-64
2023/11/01 08:30:06;;;;;;;19.83;5.63;;;14.40;99.90;;;14.67;100.00;99741.25;4810575;29;19928;-63
2023/11/01 08:32:35;;;;;;;20.83;6.47;;;14.40;99.90;;;14.57;100.00;99754.06;4826684;29;20054;-64
2023/11/01 08:35:04;;;;;;;20.77;6.20;;;14.40;99.90;;;14.67;100.00;99752.78;4826451;29;20042;-63
2023/11/01 08:37:32;;;;;;;17.20;5.40;;;14.40;99.90;;;14.58;100.00;99737.16;4810425;29;20523;-62
2023/11/01 08:40:03;;;;;;;17.85;6.00;;;14.40;99.90;;;14.65;100.00;99733.34;4826441;29;20408;-65
2023/11/01 08:42:31;;;;;;;17.05;5.57;;;14.40;99.90;;;14.68;100.00;99754.50;4826351;29;20081;-63
2023/11/01 08:45:00;;;;;;;23.65;5.45;;;14.50;99.90;;;14.68;100.00;99762.50;4826290;29;20050;-63
2023/11/01 08:47:41;;;;;;;21.73;6.70;;;14.50;99.90;;;14.58;100.00;99745.13;4816345;29;20059;-64
2023/11/01 08:50:14;;;;;;;22.38;5.65;;;14.40;99.90;;;14.72;100.00;99717.97;4826041;29;20070;-64
2023/11/01 08:52:45;;;;;;;21.73;6.28;;;14.50;99.90;;;14.64;100.00;99710.31;4809981;29;20055;-64
2023/11/01 08:55:16;;;;;;;20.35;6.30;;;14.50;99.90;;;14.76;100.00;99744.44;4826074;29;20046;-65
2023/11/01 08:57:46;;;;;;;21.48;5.82;;;14.60;99.90;;;14.70;100.00;99757.97;4825993;29;20548;-65
2023/11/01 09:00:16;;;;;;;22.92;5.75;;;14.50;99.90;;;14.64;100.00;99726.28;4826294;29;20505;-66
2023/11/01 09:02:47;;;;;;;22.17;5.40;;;14.50;99.90;;;14.69;100.00;99748.25;4825120;29;20047;-63
2023/11/01 09:05:18;;;;;;;13.20;4.90;;;14.50;99.90;;;14.77;100.00;99732.84;4825927;29;20042;-63
2023/11/01 09:07:48;;;;;;;17.27;5.80;;;14.50;99.90;;;14.77;100.00;99716.88;4825890;29;20043;-64
2023/11/01 09:10:20;;;;;;;15.43;5.43;;;14.60;99.90;;;14.86;100.00;99748.47;4825827;29;20102;-64
2023/11/01 09:12:50;;;;;;;;;;;14.60;99.90;;;15.02;100.00;99749.56;4826696;29;20121;-63
2023/11/01 09:15:19;;;;;;;19.23;5.45;;;14.80;99.90;;;15.03;100.00;99748.66;4809702;29;19929;-64
2023/11/01 09:17:48;;;;;;;23.73;5.82;;;14.80;99.90;;;15.05;100.00;99754.78;4825920;29;20073;-63
2023/11/01 09:20:18;;;;;;;19.05;5.57;;;14.80;99.90;;;14.99;100.00;99733.72;4809515;29;20145;-63
2023/11/01 09:22:47;;;;;;;23.13;5.57;;;14.80;99.90;;;15.08;100.00;99701.38;4825474;29;20505;-64
2023/11/01 09:25:17;;;;;;;13.82;4.88;;;14.90;99.90;;;15.14;100.00;99717.13;4825845;29;20095;-64
2023/11/01 09:27:47;;;;;;;15.93;4.93;;;14.90;99.90;;;15.19;100.00;99708.94;4825349;29;20058;-64
2023/11/01 09:30:16;;;;;;;14.23;5.17;;;15.00;99.90;;;15.16;100.00;99735.69;4825511;29;20077;-64
2023/11/01 09:32:44;;;;;;;19.73;5.60;;;15.00;99.90;;;15.20;100.00;99694.69;4825705;29;20497;-65
2023/11/01 09:35:13;;;;;;;11.90;4.53;;;15.00;99.90;;;15.22;100.00;99709.69;4825398;29;20047;-64
2023/11/01 09:37:41;;;;;;;16.30;4.63;;;15.00;99.90;;;15.11;100.00;99706.59;4825578;29;20050;-63
2023/11/01 09:40:12;;;;;;;17.90;5.05;;;14.90;99.90;;;15.14;100.00;99746.41;4825381;29;20054;-63
2023/11/01 09:42:40;;;;;;;17.00;5.35;;;15.00;99.90;;;14.46;100.00;99594.81;4825911;29;20424;-63
2023/11/01 09:45:13;;;;;;;13.60;4.90;;;15.00;99.90;;;15.20;100.00;99695.56;4825435;29;20110;-64
2023/11/01 09:47:42;;;;;;;17.23;4.95;;;15.00;99.90;;;15.19;100.00;99714.28;4825152;29;20054;-66
2023/11/01 09:50:17;;;;;;;16.30;4.82;;;15.00;99.90;;;15.16;100.00;99706.38;4825122;29;20051;-67
2023/11/01 09:53:08;;;;;;;16.38;4.50;;;15.00;99.90;;;15.23;100.00;99715.88;4825434;29;20051;-67
2023/11/01 09:55:45;;;;;;;11.90;4.60;;;15.00;99.90;;;15.07;100.00;99728.09;4795331;29;20417;-65
2023/11/01 09:58:19;;;;;;;14.60;4.78;;;15.00;99.90;;;14.95;100.00;99697.50;4816198;29;20047;-65
2023/11/01 10:00:54;;;;;;;14.45;5.13;;;14.90;99.90;;;15.24;100.00;99713.16;4808897;29;20054;-66
2023/11/01 10:03:25;;;;;;;17.50;4.75;;;15.00;99.90;;;15.11;100.00;99711.94;4824913;29;20069;-65
2023/11/01 10:05:54;;;;;;;19.77;4.85;;;15.00;99.90;;;15.03;100.00;99711.38;4825219;29;20103;-67
2023/11/01 10:08:22;;;;;;;12.43;5.03;;;14.90;99.90;;;15.20;100.00;99706.22;4808712;29;20055;-65
2023/11/01 10:10:51;;;;;;;16.98;5.03;;;15.00;99.90;;;15.20;100.00;99703.53;4824467;29;20052;-65
2023/11/01 10:13:20;;;;;;;13.30;4.72;;;15.00;99.90;;;15.29;100.00;99703.16;4824715;29;20505;-66